Kezdőlap
METAR-TAF:

METAR-TAF

Repülőterek :

Majors Airport

Greenville, Texas, Amerikai Egyesült Államok

földrajzi szélesség: 33-04N, földrajzi hosszúság: 096-04W, magasság: 163 m

Jelenlegi meteorológiai megfigyelések

A jelentés 40 perccel ezelõtt készült, 19:55 UTC
Délkeleti szél 8 kt
Hőmérséklet 33°C
Páratartalom 49%
Légköri nyomás 1013 hPa
Látótávolság: 16.1 km
Derült ég

METAR: KGVT 151955Z AUTO 14008KT 10SM CLR 33/21 A2991 RMK AO2 TSNO T03270209

Idő: 15:35 (20:35 UTC)


TAF: hiányzik

Meteorológiai megfigyelések és előrejelzések több, mint 4000 repülőtéren (METAR és TAF jelentéseket).

A térképen piros és sárga pontok jelzik az elérhető meteorológiai állomásokat.

Mozgassa az egeret a pont fölött, hogy megjelenjen az állomás neve.

Azután kattintson az időjárási megfigyelések és előrejelzések megtekintéséhez.

A térkép megváltoztatása: kattintson a fekete keresztel jelölt zöld gombra ráközelítéshez, a vonallal jelölt zöld gombra távolításhoz, vagy a zöld nyilakra a szomszédos térképek eléréséhez.


METAR-TAF: